sensor_id;sensor_type;location;lat;lon;timestamp;P1;P2;P0
45312;PMS7003;68267;51.540;5.854;2023-05-16T00:02:37;20.53;5.46;2.73
45312;PMS7003;68267;51.540;5.854;2023-05-16T00:15:57;1.32;4.48;2.84
45312;PMS7003;68267;51.540;5.854;2023-05-16T00:29:17;1.8;4.91;2.95
45312;PMS7003;68267;51.540;5.854;2023-05-16T00:42:37;2.16;5.24;2.62
45312;PMS7003;68267;51.540;5.854;2023-05-16T00:55:57;6.01;4.37;2.95
45312;PMS7003;68267;51.540;5.854;2023-05-16T01:09:16;7.57;5.13;2.73
45312;PMS7003;68267;51.540;5.854;2023-05-16T01:22:36;1.68;4.8;2.84
45312;PMS7003;68267;51.540;5.854;2023-05-16T01:35:56;2.88;5.9;2.62
45312;PMS7003;68267;51.540;5.854;2023-05-16T01:49:16;4.93;5.46;2.19
45312;PMS7003;68267;51.540;5.854;2023-05-16T02:02:35;5.29;4.15;2.3
45312;PMS7003;68267;51.540;5.854;2023-05-16T02:15:55;1.68;4.8;2.84
45312;PMS7003;68267;51.540;5.854;2023-05-16T02:29:15;1.68;4.8;2.84
45312;PMS7003;68267;51.540;5.854;2023-05-16T02:42:35;3.0;6.0;3.17
45312;PMS7003;68267;51.540;5.854;2023-05-16T02:55:54;6.85;5.46;2.95
45312;PMS7003;68267;51.540;5.854;2023-05-16T03:09:14;10.09;5.68;2.52
45312;PMS7003;68267;51.540;5.854;2023-05-16T03:22:34;6.61;5.35;3.06
45312;PMS7003;68267;51.540;5.854;2023-05-16T03:35:53;7.81;5.02;2.95
45312;PMS7003;68267;51.540;5.854;2023-05-16T03:49:13;2.88;5.9;2.95
45312;PMS7003;68267;51.540;5.854;2023-05-16T04:02:32;13.21;5.57;2.84
45312;PMS7003;68267;51.540;5.854;2023-05-16T04:15:52;6.97;5.02;2.41
45312;PMS7003;68267;51.540;5.854;2023-05-16T04:29:12;6.25;4.91;2.73
45312;PMS7003;68267;51.540;5.854;2023-05-16T04:42:31;8.53;5.24;2.62
45312;PMS7003;68267;51.540;5.854;2023-05-16T04:55:51;3.97;5.24;2.84
45312;PMS7003;68267;51.540;5.854;2023-05-16T05:09:11;9.25;5.02;3.06
45312;PMS7003;68267;51.540;5.854;2023-05-16T05:22:30;7.33;5.35;3.28
45312;PMS7003;68267;51.540;5.854;2023-05-16T05:35:50;6.97;5.9;3.5
45312;PMS7003;68267;51.540;5.854;2023-05-16T05:49:09;12.97;6.11;3.5
45312;PMS7003;68267;51.540;5.854;2023-05-16T06:02:29;2.64;5.68;3.5
45312;PMS7003;68267;51.540;5.854;2023-05-16T06:15:49;8.17;4.48;3.17
45312;PMS7003;68267;51.540;5.854;2023-05-16T06:29:08;20.29;6.0;3.06
45312;PMS7003;68267;51.540;5.854;2023-05-16T06:42:28;1.32;4.48;2.19
45312;PMS7003;68267;51.540;5.854;2023-05-16T06:55:48;0.48;3.71;1.86
45312;PMS7003;68267;51.540;5.854;2023-05-16T07:09:07;14.53;3.61;1.97
45312;PMS7003;68267;51.540;5.854;2023-05-16T07:22:27;7.33;2.95;1.75
45312;PMS7003;68267;51.540;5.854;2023-05-16T07:35:47;0.01;2.62;1.86
45312;PMS7003;68267;51.540;5.854;2023-05-16T07:49:07;12.01;2.08;1.64
45312;PMS7003;68267;51.540;5.854;2023-05-16T08:02:27;6.49;2.3;1.43
45312;PMS7003;68267;51.540;5.854;2023-05-16T08:15:46;0.01;2.08;1.43
45312;PMS7003;68267;51.540;5.854;2023-05-16T08:29:06;26.29;2.62;1.54
45312;PMS7003;68267;51.540;5.854;2023-05-16T08:42:26;0.01;2.08;1.54
45312;PMS7003;68267;51.540;5.854;2023-05-16T08:55:45;0.01;2.41;1.64
45312;PMS7003;68267;51.540;5.854;2023-05-16T09:09:05;0.01;1.86;1.54
45312;PMS7003;68267;51.540;5.854;2023-05-16T09:22:25;2.04;1.75;
45312;PMS7003;68267;51.540;5.854;2023-05-16T09:35:45;16.09;1.64;
45312;PMS7003;68267;51.540;5.854;2023-05-16T09:49:04;0.01;1.64;
45312;PMS7003;68267;51.540;5.854;2023-05-16T10:02:24;0.01;1.64;
45312;PMS7003;68267;51.540;5.854;2023-05-16T10:15:44;0.01;1.75;1.32
45312;PMS7003;68267;51.540;5.854;2023-05-16T10:29:04;0.01;1.43;
45312;PMS7003;68267;51.540;5.854;2023-05-16T10:42:24;0.01;1.43;
45312;PMS7003;68267;51.540;5.854;2023-05-16T10:55:44;0.01;1.54;
45312;PMS7003;68267;51.540;5.854;2023-05-16T11:09:03;24.97;1.54;
45312;PMS7003;68267;51.540;5.854;2023-05-16T11:22:23;0.01;1.43;1.21
45312;PMS7003;68267;51.540;5.854;2023-05-16T11:35:43;21.25;1.97;1.21
45312;PMS7003;68267;51.540;5.854;2023-05-16T11:49:02;2.88;1.97;1.21
45312;PMS7003;68267;51.540;5.854;2023-05-16T12:02:22;0.01;1.64;1.21
45312;PMS7003;68267;51.540;5.854;2023-05-16T12:15:42;0.01;1.86;1.21
45312;PMS7003;68267;51.540;5.854;2023-05-16T12:29:01;7.33;1.97;1.32
45312;PMS7003;68267;51.540;5.854;2023-05-16T12:42:21;0.01;1.43;
45312;PMS7003;68267;51.540;5.854;2023-05-16T12:55:41;0.01;1.86;
45312;PMS7003;68267;51.540;5.854;2023-05-16T13:09:00;0.01;1.75;1.43
45312;PMS7003;68267;51.540;5.854;2023-05-16T13:22:20;9.01;2.08;1.43
45312;PMS7003;68267;51.540;5.854;2023-05-16T13:35:40;0.01;2.3;1.32
45312;PMS7003;68267;51.540;5.854;2023-05-16T13:49:00;0.01;1.64;1.21
45312;PMS7003;68267;51.540;5.854;2023-05-16T14:02:19;16.33;1.86;
45312;PMS7003;68267;51.540;5.854;2023-05-16T14:15:39;18.25;1.86;
45312;PMS7003;68267;51.540;5.854;2023-05-16T14:28:59;0.01;1.54;1.21
45312;PMS7003;68267;51.540;5.854;2023-05-16T14:42:18;0.01;1.64;
45312;PMS7003;68267;51.540;5.854;2023-05-16T14:55:38;0.01;1.97;1.21
45312;PMS7003;68267;51.540;5.854;2023-05-16T15:08:58;0.01;2.52;1.32
45312;PMS7003;68267;51.540;5.854;2023-05-16T15:22:18;0.01;1.75;1.21
45312;PMS7003;68267;51.540;5.854;2023-05-16T15:35:37;5.65;1.64;1.43
45312;PMS7003;68267;51.540;5.854;2023-05-16T15:48:57;0.01;2.08;1.75
45312;PMS7003;68267;51.540;5.854;2023-05-16T16:02:17;0.01;2.41;1.54
45312;PMS7003;68267;51.540;5.854;2023-05-16T16:15:37;0.01;1.86;1.64
45312;PMS7003;68267;51.540;5.854;2023-05-16T16:28:56;15.97;1.86;1.32
45312;PMS7003;68267;51.540;5.854;2023-05-16T16:42:16;16.81;2.73;1.54
45312;PMS7003;68267;51.540;5.854;2023-05-16T16:55:36;0.01;1.75;1.54
45312;PMS7003;68267;51.540;5.854;2023-05-16T17:08:56;0.01;2.08;1.64
45312;PMS7003;68267;51.540;5.854;2023-05-16T17:22:16;0.01;3.06;1.75
45312;PMS7003;68267;51.540;5.854;2023-05-16T17:35:35;0.01;2.19;1.64
45312;PMS7003;68267;51.540;5.854;2023-05-16T17:48:55;27.85;2.62;1.64
45312;PMS7003;68267;51.540;5.854;2023-05-16T18:02:15;0.01;1.75;1.32
45312;PMS7003;68267;51.540;5.854;2023-05-16T18:15:34;0.01;2.84;1.64
45312;PMS7003;68267;51.540;5.854;2023-05-16T18:28:54;0.01;2.3;1.64
45312;PMS7003;68267;51.540;5.854;2023-05-16T18:42:13;0.01;3.06;2.08
45312;PMS7003;68267;51.540;5.854;2023-05-16T18:55:33;0.24;3.5;2.08
45312;PMS7003;68267;51.540;5.854;2023-05-16T19:08:53;0.01;2.73;1.97
45312;PMS7003;68267;51.540;5.854;2023-05-16T19:22:12;8.41;2.73;2.19
45312;PMS7003;68267;51.540;5.854;2023-05-16T19:35:32;0.01;2.19;2.19
45312;PMS7003;68267;51.540;5.854;2023-05-16T19:48:52;1.2;4.37;3.5
45312;PMS7003;68267;51.540;5.854;2023-05-16T20:02:11;1.32;4.48;3.93
45312;PMS7003;68267;51.540;5.854;2023-05-16T20:15:31;5.17;4.91;4.15
45312;PMS7003;68267;51.540;5.854;2023-05-16T20:28:50;6.01;5.35;4.37
45312;PMS7003;68267;51.540;5.854;2023-05-16T20:42:10;2.04;5.13;4.8
45312;PMS7003;68267;51.540;5.854;2023-05-16T20:55:30;2.64;5.68;5.13
45312;PMS7003;68267;51.540;5.854;2023-05-16T21:08:49;1.92;5.02;4.59
45312;PMS7003;68267;51.540;5.854;2023-05-16T21:22:09;2.52;5.57;5.02
45312;PMS7003;68267;51.540;5.854;2023-05-16T21:35:28;2.76;5.79;5.13
45312;PMS7003;68267;51.540;5.854;2023-05-16T21:48:48;6.73;6.44;5.9
45312;PMS7003;68267;51.540;5.854;2023-05-16T22:02:08;5.53;8.29;7.31
45312;PMS7003;68267;51.540;5.854;2023-05-16T22:15:28;5.53;8.29;7.42
45312;PMS7003;68267;51.540;5.854;2023-05-16T22:28:47;6.25;8.95;7.86
45312;PMS7003;68267;51.540;5.854;2023-05-16T22:42:07;7.81;8.62;7.53
45312;PMS7003;68267;51.540;5.854;2023-05-16T22:55:27;6.49;9.17;7.53
45312;PMS7003;68267;51.540;5.854;2023-05-16T23:08:47;9.61;9.06;7.75
45312;PMS7003;68267;51.540;5.854;2023-05-16T23:22:07;7.33;9.93;8.08
45312;PMS7003;68267;51.540;5.854;2023-05-16T23:35:26;6.37;7.64;6.88
45312;PMS7003;68267;51.540;5.854;2023-05-16T23:48:46;4.93;7.75;6.88
